Giorgos Dracopoulos — 9HA3377 — position and weather

sailwx.info

Track history (hours):
 
Tides and Currents Weather Stations Pressure Air Temp Water Temp Dewpoint Dewpoint Depression Visibility Wind Speed Wind Dir Waves Ship Positions

Giorgos Dracopoulos

Last reported at 2018-Apr-16 14:53 UTC. Time now 2018-Apr-21 00:22 UTC.
Position S 00°00' W 047°35'.

Length 199 m; draft 13.2 m.

Type: Cargo ship. MMSI: 229523000.

Date/timePositionNaut miles runAvg speedWind from/ knotsBaromVisibWave heightAir tempDewpointWater temp
2018-Apr-16 14:53S 00°00' W 047°35'513.5
2018-Apr-16 14:30S 00°03' W 047°40'612.6
2018-Apr-16 14:00S 00°06' W 047°45'612.1
2018-Apr-16 13:30S 00°09' W 047°50'511.0
2018-Apr-16 13:00S 00°13' W 047°54'4 7.9
2018-Apr-16 12:30S 00°16' W 047°56'2 4.2
2018-Apr-16 12:00S 00°18' W 047°58'8 8.2
2018-Apr-16 11:01S 00°21' W 048°06'0 8.5
2018-Apr-16 11:00S 00°21' W 048°06'4 8.7
2018-Apr-16 10:30S 00°23' W 048°09'4 8.4
2018-Apr-16 10:00S 00°26' W 048°13'35 5.9
2018-Apr-16 04:04S 00°57' W 048°26'111.6
2018-Apr-16 04:00S 00°58' W 048°26'710.4
2018-Apr-16 03:19S 01°05' W 048°30'310.1
2018-Apr-16 03:00S 01°07' W 048°32'4 7.5
2018-Apr-16 02:30S 01°10' W 048°34'2 4.5
2018-Apr-16 02:00S 01°11' W 048°36'4 8.9
2018-Apr-16 01:31S 01°15' W 048°38'5 9.8
2018-Apr-16 01:00S 01°19' W 048°41'511.0
2018-Apr-16 00:30S 01°24' W 048°43'611.8
2018-Apr-15 23:58S 01°30' W 048°46'3 7.6
2018-Apr-15 23:30S 01°33' W 048°47'1 1.8
2018-Apr-15 22:58S 01°34' W 048°47'0 0.0
2018-Apr-15 22:16S 01°34' W 048°47'0 0.0
2018-Apr-15 21:52S 01°34' W 048°47'0 0.0
2018-Apr-15 21:22S 01°34' W 048°47'0 0.0
2018-Apr-15 20:58S 01°34' W 048°47'0 0.0
2018-Apr-15 02:39S 01°34' W 048°47'0 0.0
2018-Apr-15 02:27S 01°34' W 048°47'0 0.0
2018-Apr-15 01:51S 01°34' W 048°47'0 0.0
2018-Apr-15 01:27S 01°34' W 048°47'0 0.0
2018-Apr-15 00:51S 01°34' W 048°47'0 0.0
2018-Apr-15 00:27S 01°34' W 048°47'0 0.0
2018-Apr-14 23:58S 01°34' W 048°47'0 0.0
2018-Apr-14 23:15S 01°34' W 048°47'0 0.0
2018-Apr-14 22:57S 01°34' W 048°47'0 0.0
2018-Apr-14 22:09S 01°34' W 048°47'0 0.0
2018-Apr-14 21:58S 01°34' W 048°47'0 0.0
2018-Apr-14 21:28S 01°34' W 048°47'0 0.0
2018-Apr-14 20:58S 01°34' W 048°47'0 0.0
2018-Apr-14 00:57S 01°34' W 048°47'0 0.0
2018-Apr-14 00:27S 01°34' W 048°47'0 0.0
2018-Apr-13 23:27S 01°34' W 048°47'0 0.0
2018-Apr-13 21:33S 01°34' W 048°47'0 0.0
2018-Apr-13 21:21S 01°34' W 048°47'0 0.0
2018-Apr-13 20:58S 01°34' W 048°47'0 0.0
2018-Apr-13 19:33S 01°34' W 048°47'0 0.1
2018-Apr-13 19:27S 01°34' W 048°47'0 0.0
2018-Apr-13 18:57S 01°34' W 048°47'0 0.0
2018-Apr-13 18:27S 01°34' W 048°47'0 0.0
2018-Apr-13 17:33S 01°34' W 048°47'0 0.0
2018-Apr-13 17:21S 01°34' W 048°47'0 0.0
2018-Apr-13 16:57S 01°34' W 048°47'0 0.0
2018-Apr-13 16:27S 01°34' W 048°47'0 0.0
2018-Apr-13 15:57S 01°34' W 048°47'0 0.0
2018-Apr-13 15:27S 01°34' W 048°47'0 0.0
2018-Apr-13 14:39S 01°34' W 048°47'0 0.0
2018-Apr-13 14:15S 01°34' W 048°47'0 0.0
2018-Apr-13 13:40S 01°34' W 048°47'0 0.0
2018-Apr-13 13:21S 01°34' W 048°47'0 0.0
2018-Apr-13 12:57S 01°34' W 048°47'0 0.0
2018-Apr-13 12:10S 01°34' W 048°47'0 0.0
2018-Apr-13 11:57S 01°34' W 048°47'0 0.0
2018-Apr-13 11:27S 01°34' W 048°47'0 0.0
2018-Apr-13 10:57S 01°34' W 048°47'0 0.0
2018-Apr-13 10:27S 01°34' W 048°47'0 0.0
2018-Apr-13 09:45S 01°34' W 048°47'0 0.0
2018-Apr-13 09:27S 01°34' W 048°47'0 0.0
2018-Apr-13 08:57S 01°34' W 048°47'0 0.0
2018-Apr-13 08:27S 01°34' W 048°47'0 0.0
2018-Apr-13 07:57S 01°34' W 048°47'0 0.0
2018-Apr-13 07:27S 01°34' W 048°47'0 0.0
2018-Apr-13 06:57S 01°34' W 048°47'0 0.0
2018-Apr-13 06:27S 01°34' W 048°47'0 0.0
2018-Apr-13 05:52S 01°34' W 048°47'0 0.0
2018-Apr-13 05:28S 01°34' W 048°47'0 0.0
2018-Apr-13 04:57S 01°34' W 048°47'0 0.0
2018-Apr-13 04:27S 01°34' W 048°47'0 0.0
2018-Apr-13 03:57S 01°34' W 048°47'0 0.0
2018-Apr-13 03:27S 01°34' W 048°47'0 0.0
2018-Apr-13 02:57S 01°34' W 048°47'0 0.0
2018-Apr-13 02:27S 01°34' W 048°47'0 0.0
2018-Apr-13 01:57S 01°34' W 048°47'0 0.0
2018-Apr-13 01:27S 01°34' W 048°47'0 0.0
2018-Apr-13 00:34S 01°34' W 048°47'0 0.0
2018-Apr-13 00:27S 01°34' W 048°47'0 0.0
2018-Apr-12 22:57S 01°34' W 048°47'0 0.0
2018-Apr-12 22:03S 01°34' W 048°47'0 0.0
2018-Apr-12 21:57S 01°34' W 048°47'0 0.0
2018-Apr-12 21:27S 01°34' W 048°47'0 0.0
2018-Apr-12 20:52S 01°34' W 048°47'0 0.0
2018-Apr-12 20:27S 01°34' W 048°47'0 0.0
2018-Apr-12 11:33S 01°34' W 048°47'0 0.0
2018-Apr-12 11:21S 01°34' W 048°47'0 0.0
2018-Apr-12 10:57S 01°34' W 048°47'0 0.0
2018-Apr-12 10:27S 01°34' W 048°47'0 0.0
2018-Apr-12 09:58S 01°34' W 048°47'0 0.0
2018-Apr-12 09:27S 01°34' W 048°47'0 0.0
2018-Apr-12 08:54S 01°34' W 048°47'0 0.0
2018-Apr-12 07:55S 01°34' W 048°47'0 0.0
2018-Apr-12 07:29S 01°34' W 048°47'0 0.0
2018-Apr-12 07:00S 01°34' W 048°47'0 0.0
2018-Apr-12 06:29S 01°34' W 048°47'0 0.0
2018-Apr-12 05:57S 01°34' W 048°47'0 0.0
2018-Apr-12 05:27S 01°34' W 048°47'0 0.0
2018-Apr-12 04:57S 01°34' W 048°47'0 0.0
2018-Apr-12 04:21S 01°34' W 048°47'0 0.0
2018-Apr-12 03:57S 01°34' W 048°47'0 0.0
2018-Apr-12 03:21S 01°34' W 048°47'0 0.0
2018-Apr-12 02:51S 01°34' W 048°47'0 0.0
2018-Apr-12 02:03S 01°34' W 048°47'0 0.0
2018-Apr-12 01:57S 01°34' W 048°47'0 0.0
2018-Apr-12 01:21S 01°34' W 048°47'0 0.0
2018-Apr-12 00:45S 01°34' W 048°47'0 0.0
2018-Apr-12 00:27S 01°34' W 048°47'0 0.0
2018-Apr-11 23:27S 01°34' W 048°47'0 0.0
2018-Apr-11 22:15S 01°34' W 048°47'0 0.0
2018-Apr-11 21:57S 01°34' W 048°47'0 0.0
2018-Apr-11 21:27S 01°34' W 048°47'0 0.0
2018-Apr-11 20:39S 01°34' W 048°47'0 0.0
2018-Apr-11 20:27S 01°34' W 048°47'0 0.0
2018-Apr-11 19:57S 01°34' W 048°47'0 0.0
2018-Apr-11 19:27S 01°34' W 048°47'0 0.0
2018-Apr-11 18:51S 01°34' W 048°47'0 0.0
2018-Apr-11 17:06S 01°34' W 048°47'0 0.0
2018-Apr-11 17:00S 01°34' W 048°47'0 0.0
2018-Apr-11 16:30S 01°34' W 048°47'0 0.0
2018-Apr-11 15:54S 01°34' W 048°47'0 0.0
2018-Apr-11 15:30S 01°34' W 048°47'0 0.0
2018-Apr-11 15:00S 01°34' W 048°47'0 0.0
2018-Apr-11 14:24S 01°34' W 048°47'0 0.0
2018-Apr-11 14:00S 01°34' W 048°47'0 0.0
2018-Apr-11 13:18S 01°34' W 048°47'0 0.0
2018-Apr-11 13:00S 01°34' W 048°47'0 0.0
2018-Apr-11 12:24S 01°34' W 048°47'0 0.0
2018-Apr-11 11:48S 01°34' W 048°47'0 0.0
2018-Apr-11 11:24S 01°34' W 048°47'0 0.0
2018-Apr-11 11:00S 01°34' W 048°47'0 0.0
2018-Apr-11 10:30S 01°34' W 048°47'0 0.0
2018-Apr-11 10:00S 01°34' W 048°47'0 0.0
2018-Apr-11 09:18S 01°34' W 048°47'0 0.0
2018-Apr-11 09:00S 01°34' W 048°47'0 0.0
2018-Apr-11 08:31S 01°34' W 048°47'0 0.0
2018-Apr-11 08:00S 01°34' W 048°47'0 0.0
2018-Apr-11 07:21S 01°34' W 048°47'0 0.0
2018-Apr-11 06:51S 01°34' W 048°47'0 0.0
2018-Apr-11 06:21S 01°34' W 048°47'0 0.0
2018-Apr-11 05:57S 01°34' W 048°47'0 0.0
2018-Apr-11 05:15S 01°34' W 048°47'0 0.0
2018-Apr-11 04:57S 01°34' W 048°47'0 0.0
2018-Apr-11 04:22S 01°34' W 048°47'0 0.0
2018-Apr-11 03:57S 01°34' W 048°47'0 0.0
2018-Apr-11 03:25S 01°34' W 048°47'0 0.0
2018-Apr-11 02:54S 01°34' W 048°47'0 0.0
2018-Apr-11 02:30S 01°34' W 048°47'0 0.1
2018-Apr-11 02:00S 01°34' W 048°47'0 0.1
2018-Apr-11 01:30S 01°34' W 048°47'0 0.0
2018-Apr-11 01:00S 01°34' W 048°47'0 0.0
2018-Apr-11 00:30S 01°34' W 048°47'0 0.0
2018-Apr-10 23:54S 01°34' W 048°47'0 0.0
2018-Apr-10 23:30S 01°34' W 048°47'0 0.0
2018-Apr-10 23:00S 01°34' W 048°47'0 0.0
2018-Apr-10 22:24S 01°34' W 048°47'0 0.0
2018-Apr-10 22:00S 01°34' W 048°47'0 0.0
2018-Apr-10 21:30S 01°34' W 048°47'0 0.0
2018-Apr-10 21:00S 01°34' W 048°47'0 0.0
2018-Apr-10 20:30S 01°34' W 048°47'0 0.4
2018-Apr-10 19:59S 01°34' W 048°47'4 7.4
2018-Apr-10 19:29S 01°31' W 048°45'612.1
2018-Apr-10 19:00S 01°25' W 048°43'612.4
2018-Apr-10 18:30S 01°20' W 048°40'611.9
2018-Apr-10 18:00S 01°15' W 048°36'611.5
2018-Apr-10 17:30S 01°11' W 048°33'3 6.4
2018-Apr-10 17:00S 01°08' W 048°31'2 4.9
2018-Apr-10 16:30S 01°06' W 048°30'1 1.3
2018-Apr-10 15:58S 01°05' W 048°29'0 0.0
2018-Apr-10 15:28S 01°05' W 048°29'0 0.1
2018-Apr-10 14:58S 01°05' W 048°29'0 0.1
2018-Apr-10 14:28S 01°05' W 048°29'0 0.2
2018-Apr-10 13:58S 01°05' W 048°29'0 0.2
2018-Apr-10 13:25S 01°05' W 048°29'0 0.2
2018-Apr-10 12:59S 01°05' W 048°29'0 0.1
2018-Apr-10 12:28S 01°06' W 048°29'0 0.0
2018-Apr-10 11:58S 01°06' W 048°29'0 0.0
2018-Apr-10 11:28S 01°06' W 048°29'0 0.0
2018-Apr-10 10:58S 01°06' W 048°29'0 0.0
2018-Apr-10 10:28S 01°06' W 048°29'0 0.0
2018-Apr-10 09:58S 01°06' W 048°29'0 0.0
2018-Apr-10 09:28S 01°06' W 048°29'0 0.0
2018-Apr-10 08:58S 01°06' W 048°29'0 0.0
2018-Apr-10 08:25S 01°06' W 048°29'0 0.0
2018-Apr-10 07:58S 01°05' W 048°29'0 0.1
2018-Apr-10 07:28S 01°05' W 048°29'0 0.1
2018-Apr-10 06:55S 01°05' W 048°29'0 0.3
2018-Apr-10 06:30S 01°05' W 048°29'0 0.1
2018-Apr-10 05:56S 01°05' W 048°29'0 0.0
2018-Apr-10 05:31S 01°05' W 048°29'0 0.0
2018-Apr-10 04:59S 01°05' W 048°29'0 0.0
2018-Apr-10 04:28S 01°05' W 048°29'0 0.0
2018-Apr-10 03:56S 01°05' W 048°29'0 0.0
2018-Apr-10 03:29S 01°05' W 048°29'0 0.0
2018-Apr-10 02:58S 01°05' W 048°29'0 0.0
2018-Apr-10 02:28S 01°05' W 048°29'0 0.0
2018-Apr-10 01:58S 01°05' W 048°29'1 1.5
2018-Apr-10 01:30S 01°05' W 048°29'3 6.5
2018-Apr-10 01:00S 01°02' W 048°28'510.0
2018-Apr-10 00:30S 00°57' W 048°26'510.1
2018-Apr-10 00:00S 00°53' W 048°29'510.0
2018-Apr-09 23:30S 00°48' W 048°28'511.1
2018-Apr-09 23:00S 00°43' W 048°25'612.0
2018-Apr-09 22:30S 00°38' W 048°22'612.2
2018-Apr-09 21:59S 00°32' W 048°18'612.2
2018-Apr-09 21:30S 00°28' W 048°15'612.0
2018-Apr-09 21:00S 00°24' W 048°10'612.1
2018-Apr-09 20:30S 00°21' W 048°05'612.6
2018-Apr-09 20:00S 00°18' W 047°59'612.1
2018-Apr-09 19:30S 00°15' W 047°55'612.4
2018-Apr-09 19:00S 00°10' W 047°50'612.4
2018-Apr-09 18:30S 00°06' W 047°46'612.3
2018-Apr-09 18:00S 00°02' W 047°41'612.7
2018-Apr-09 17:30N 00°03' W 047°37'  
Track history (hours):
 
Tides and Currents Weather Stations Pressure Air Temp Water Temp Dewpoint Dewpoint Depression Visibility Wind Speed Wind Dir Waves Ship Positions

Giorgos Dracopoulos

Last reported at 2018-Apr-16 14:53 UTC. Time now 2018-Apr-21 00:22 UTC.
Position S 00°00' W 047°35'.

Length 199 m; draft 13.2 m.

Type: Cargo ship. MMSI: 229523000.

Date/timePositionNaut miles runAvg speedWind from/ knotsBaromVisibWave heightAir tempDewpointWater temp
2018-Apr-16 14:53S 00°00' W 047°35'513.5
2018-Apr-16 14:30S 00°03' W 047°40'612.6
2018-Apr-16 14:00S 00°06' W 047°45'612.1
2018-Apr-16 13:30S 00°09' W 047°50'511.0
2018-Apr-16 13:00S 00°13' W 047°54'4 7.9
2018-Apr-16 12:30S 00°16' W 047°56'2 4.2
2018-Apr-16 12:00S 00°18' W 047°58'8 8.2
2018-Apr-16 11:01S 00°21' W 048°06'0 8.5
2018-Apr-16 11:00S 00°21' W 048°06'4 8.7
2018-Apr-16 10:30S 00°23' W 048°09'4 8.4
2018-Apr-16 10:00S 00°26' W 048°13'35 5.9
2018-Apr-16 04:04S 00°57' W 048°26'111.6
2018-Apr-16 04:00S 00°58' W 048°26'710.4
2018-Apr-16 03:19S 01°05' W 048°30'310.1
2018-Apr-16 03:00S 01°07' W 048°32'4 7.5
2018-Apr-16 02:30S 01°10' W 048°34'2 4.5
2018-Apr-16 02:00S 01°11' W 048°36'4 8.9
2018-Apr-16 01:31S 01°15' W 048°38'5 9.8
2018-Apr-16 01:00S 01°19' W 048°41'511.0
2018-Apr-16 00:30S 01°24' W 048°43'611.8
2018-Apr-15 23:58S 01°30' W 048°46'3 7.6
2018-Apr-15 23:30S 01°33' W 048°47'1 1.8
2018-Apr-15 22:58S 01°34' W 048°47'0 0.0
2018-Apr-15 22:16S 01°34' W 048°47'0 0.0
2018-Apr-15 21:52S 01°34' W 048°47'0 0.0
2018-Apr-15 21:22S 01°34' W 048°47'0 0.0
2018-Apr-15 20:58S 01°34' W 048°47'0 0.0
2018-Apr-15 02:39S 01°34' W 048°47'0 0.0
2018-Apr-15 02:27S 01°34' W 048°47'0 0.0
2018-Apr-15 01:51S 01°34' W 048°47'0 0.0
2018-Apr-15 01:27S 01°34' W 048°47'0 0.0
2018-Apr-15 00:51S 01°34' W 048°47'0 0.0
2018-Apr-15 00:27S 01°34' W 048°47'0 0.0
2018-Apr-14 23:58S 01°34' W 048°47'0 0.0
2018-Apr-14 23:15S 01°34' W 048°47'0 0.0
2018-Apr-14 22:57S 01°34' W 048°47'0 0.0
2018-Apr-14 22:09S 01°34' W 048°47'0 0.0
2018-Apr-14 21:58S 01°34' W 048°47'0 0.0
2018-Apr-14 21:28S 01°34' W 048°47'0 0.0
2018-Apr-14 20:58S 01°34' W 048°47'0 0.0
2018-Apr-14 00:57S 01°34' W 048°47'0 0.0
2018-Apr-14 00:27S 01°34' W 048°47'0 0.0
2018-Apr-13 23:27S 01°34' W 048°47'0 0.0
2018-Apr-13 21:33S 01°34' W 048°47'0 0.0
2018-Apr-13 21:21S 01°34' W 048°47'0 0.0
2018-Apr-13 20:58S 01°34' W 048°47'0 0.0
2018-Apr-13 19:33S 01°34' W 048°47'0 0.1
2018-Apr-13 19:27S 01°34' W 048°47'0 0.0
2018-Apr-13 18:57S 01°34' W 048°47'0 0.0
2018-Apr-13 18:27S 01°34' W 048°47'0 0.0
2018-Apr-13 17:33S 01°34' W 048°47'0 0.0
2018-Apr-13 17:21S 01°34' W 048°47'0 0.0
2018-Apr-13 16:57S 01°34' W 048°47'0 0.0
2018-Apr-13 16:27S 01°34' W 048°47'0 0.0
2018-Apr-13 15:57S 01°34' W 048°47'0 0.0
2018-Apr-13 15:27S 01°34' W 048°47'0 0.0
2018-Apr-13 14:39S 01°34' W 048°47'0 0.0
2018-Apr-13 14:15S 01°34' W 048°47'0 0.0
2018-Apr-13 13:40S 01°34' W 048°47'0 0.0
2018-Apr-13 13:21S 01°34' W 048°47'0 0.0
2018-Apr-13 12:57S 01°34' W 048°47'0 0.0
2018-Apr-13 12:10S 01°34' W 048°47'0 0.0
2018-Apr-13 11:57S 01°34' W 048°47'0 0.0
2018-Apr-13 11:27S 01°34' W 048°47'0 0.0
2018-Apr-13 10:57S 01°34' W 048°47'0 0.0
2018-Apr-13 10:27S 01°34' W 048°47'0 0.0
2018-Apr-13 09:45S 01°34' W 048°47'0 0.0
2018-Apr-13 09:27S 01°34' W 048°47'0 0.0
2018-Apr-13 08:57S 01°34' W 048°47'0 0.0
2018-Apr-13 08:27S 01°34' W 048°47'0 0.0
2018-Apr-13 07:57S 01°34' W 048°47'0 0.0
2018-Apr-13 07:27S 01°34' W 048°47'0 0.0
2018-Apr-13 06:57S 01°34' W 048°47'0 0.0
2018-Apr-13 06:27S 01°34' W 048°47'0 0.0
2018-Apr-13 05:52S 01°34' W 048°47'0 0.0
2018-Apr-13 05:28S 01°34' W 048°47'0 0.0
2018-Apr-13 04:57S 01°34' W 048°47'0 0.0
2018-Apr-13 04:27S 01°34' W 048°47'0 0.0
2018-Apr-13 03:57S 01°34' W 048°47'0 0.0
2018-Apr-13 03:27S 01°34' W 048°47'0 0.0
2018-Apr-13 02:57S 01°34' W 048°47'0 0.0
2018-Apr-13 02:27S 01°34' W 048°47'0 0.0
2018-Apr-13 01:57S 01°34' W 048°47'0 0.0
2018-Apr-13 01:27S 01°34' W 048°47'0 0.0
2018-Apr-13 00:34S 01°34' W 048°47'0 0.0
2018-Apr-13 00:27S 01°34' W 048°47'0 0.0
2018-Apr-12 22:57S 01°34' W 048°47'0 0.0
2018-Apr-12 22:03S 01°34' W 048°47'0 0.0
2018-Apr-12 21:57S 01°34' W 048°47'0 0.0
2018-Apr-12 21:27S 01°34' W 048°47'0 0.0
2018-Apr-12 20:52S 01°34' W 048°47'0 0.0
2018-Apr-12 20:27S 01°34' W 048°47'0 0.0
2018-Apr-12 11:33S 01°34' W 048°47'0 0.0
2018-Apr-12 11:21S 01°34' W 048°47'0 0.0
2018-Apr-12 10:57S 01°34' W 048°47'0 0.0
2018-Apr-12 10:27S 01°34' W 048°47'0 0.0
2018-Apr-12 09:58S 01°34' W 048°47'0 0.0
2018-Apr-12 09:27S 01°34' W 048°47'0 0.0
2018-Apr-12 08:54S 01°34' W 048°47'0 0.0
2018-Apr-12 07:55S 01°34' W 048°47'0 0.0
2018-Apr-12 07:29S 01°34' W 048°47'0 0.0
2018-Apr-12 07:00S 01°34' W 048°47'0 0.0
2018-Apr-12 06:29S 01°34' W 048°47'0 0.0
2018-Apr-12 05:57S 01°34' W 048°47'0 0.0
2018-Apr-12 05:27S 01°34' W 048°47'0 0.0
2018-Apr-12 04:57S 01°34' W 048°47'0 0.0
2018-Apr-12 04:21S 01°34' W 048°47'0 0.0
2018-Apr-12 03:57S 01°34' W 048°47'0 0.0
2018-Apr-12 03:21S 01°34' W 048°47'0 0.0
2018-Apr-12 02:51S 01°34' W 048°47'0 0.0
2018-Apr-12 02:03S 01°34' W 048°47'0 0.0
2018-Apr-12 01:57S 01°34' W 048°47'0 0.0
2018-Apr-12 01:21S 01°34' W 048°47'0 0.0
2018-Apr-12 00:45S 01°34' W 048°47'0 0.0
2018-Apr-12 00:27S 01°34' W 048°47'0 0.0
2018-Apr-11 23:27S 01°34' W 048°47'0 0.0
2018-Apr-11 22:15S 01°34' W 048°47'0 0.0
2018-Apr-11 21:57S 01°34' W 048°47'0 0.0
2018-Apr-11 21:27S 01°34' W 048°47'0 0.0
2018-Apr-11 20:39S 01°34' W 048°47'0 0.0
2018-Apr-11 20:27S 01°34' W 048°47'0 0.0
2018-Apr-11 19:57S 01°34' W 048°47'0 0.0
2018-Apr-11 19:27S 01°34' W 048°47'0 0.0
2018-Apr-11 18:51S 01°34' W 048°47'0 0.0
2018-Apr-11 17:06S 01°34' W 048°47'0 0.0
2018-Apr-11 17:00S 01°34' W 048°47'0 0.0
2018-Apr-11 16:30S 01°34' W 048°47'0 0.0
2018-Apr-11 15:54S 01°34' W 048°47'0 0.0
2018-Apr-11 15:30S 01°34' W 048°47'0 0.0
2018-Apr-11 15:00S 01°34' W 048°47'0 0.0
2018-Apr-11 14:24S 01°34' W 048°47'0 0.0
2018-Apr-11 14:00S 01°34' W 048°47'0 0.0
2018-Apr-11 13:18S 01°34' W 048°47'0 0.0
2018-Apr-11 13:00S 01°34' W 048°47'0 0.0
2018-Apr-11 12:24S 01°34' W 048°47'0 0.0
2018-Apr-11 11:48S 01°34' W 048°47'0 0.0
2018-Apr-11 11:24S 01°34' W 048°47'0 0.0
2018-Apr-11 11:00S 01°34' W 048°47'0 0.0
2018-Apr-11 10:30S 01°34' W 048°47'0 0.0
2018-Apr-11 10:00S 01°34' W 048°47'0 0.0
2018-Apr-11 09:18S 01°34' W 048°47'0 0.0
2018-Apr-11 09:00S 01°34' W 048°47'0 0.0
2018-Apr-11 08:31S 01°34' W 048°47'0 0.0
2018-Apr-11 08:00S 01°34' W 048°47'0 0.0
2018-Apr-11 07:21S 01°34' W 048°47'0 0.0
2018-Apr-11 06:51S 01°34' W 048°47'0 0.0
2018-Apr-11 06:21S 01°34' W 048°47'0 0.0
2018-Apr-11 05:57S 01°34' W 048°47'0 0.0
2018-Apr-11 05:15S 01°34' W 048°47'0 0.0
2018-Apr-11 04:57S 01°34' W 048°47'0 0.0
2018-Apr-11 04:22S 01°34' W 048°47'0 0.0
2018-Apr-11 03:57S 01°34' W 048°47'0 0.0
2018-Apr-11 03:25S 01°34' W 048°47'0 0.0
2018-Apr-11 02:54S 01°34' W 048°47'0 0.0
2018-Apr-11 02:30S 01°34' W 048°47'0 0.1
2018-Apr-11 02:00S 01°34' W 048°47'0 0.1
2018-Apr-11 01:30S 01°34' W 048°47'0 0.0
2018-Apr-11 01:00S 01°34' W 048°47'0 0.0
2018-Apr-11 00:30S 01°34' W 048°47'0 0.0
2018-Apr-10 23:54S 01°34' W 048°47'0 0.0
2018-Apr-10 23:30S 01°34' W 048°47'0 0.0
2018-Apr-10 23:00S 01°34' W 048°47'0 0.0
2018-Apr-10 22:24S 01°34' W 048°47'0 0.0
2018-Apr-10 22:00S 01°34' W 048°47'0 0.0
2018-Apr-10 21:30S 01°34' W 048°47'0 0.0
2018-Apr-10 21:00S 01°34' W 048°47'0 0.0
2018-Apr-10 20:30S 01°34' W 048°47'0 0.4
2018-Apr-10 19:59S 01°34' W 048°47'4 7.4
2018-Apr-10 19:29S 01°31' W 048°45'612.1
2018-Apr-10 19:00S 01°25' W 048°43'612.4
2018-Apr-10 18:30S 01°20' W 048°40'611.9
2018-Apr-10 18:00S 01°15' W 048°36'611.5
2018-Apr-10 17:30S 01°11' W 048°33'3 6.4
2018-Apr-10 17:00S 01°08' W 048°31'2 4.9
2018-Apr-10 16:30S 01°06' W 048°30'1 1.3
2018-Apr-10 15:58S 01°05' W 048°29'0 0.0
2018-Apr-10 15:28S 01°05' W 048°29'0 0.1
2018-Apr-10 14:58S 01°05' W 048°29'0 0.1
2018-Apr-10 14:28S 01°05' W 048°29'0 0.2
2018-Apr-10 13:58S 01°05' W 048°29'0 0.2
2018-Apr-10 13:25S 01°05' W 048°29'0 0.2
2018-Apr-10 12:59S 01°05' W 048°29'0 0.1
2018-Apr-10 12:28S 01°06' W 048°29'0 0.0
2018-Apr-10 11:58S 01°06' W 048°29'0 0.0
2018-Apr-10 11:28S 01°06' W 048°29'0 0.0
2018-Apr-10 10:58S 01°06' W 048°29'0 0.0
2018-Apr-10 10:28S 01°06' W 048°29'0 0.0
2018-Apr-10 09:58S 01°06' W 048°29'0 0.0
2018-Apr-10 09:28S 01°06' W 048°29'0 0.0
2018-Apr-10 08:58S 01°06' W 048°29'0 0.0
2018-Apr-10 08:25S 01°06' W 048°29'0 0.0
2018-Apr-10 07:58S 01°05' W 048°29'0 0.1
2018-Apr-10 07:28S 01°05' W 048°29'0 0.1
2018-Apr-10 06:55S 01°05' W 048°29'0 0.3
2018-Apr-10 06:30S 01°05' W 048°29'0 0.1
2018-Apr-10 05:56S 01°05' W 048°29'0 0.0
2018-Apr-10 05:31S 01°05' W 048°29'0 0.0
2018-Apr-10 04:59S 01°05' W 048°29'0 0.0
2018-Apr-10 04:28S 01°05' W 048°29'0 0.0
2018-Apr-10 03:56S 01°05' W 048°29'0 0.0
2018-Apr-10 03:29S 01°05' W 048°29'0 0.0
2018-Apr-10 02:58S 01°05' W 048°29'0 0.0
2018-Apr-10 02:28S 01°05' W 048°29'0 0.0
2018-Apr-10 01:58S 01°05' W 048°29'1 1.5
2018-Apr-10 01:30S 01°05' W 048°29'3 6.5
2018-Apr-10 01:00S 01°02' W 048°28'510.0
2018-Apr-10 00:30S 00°57' W 048°26'510.1
2018-Apr-10 00:00S 00°53' W 048°29'510.0
2018-Apr-09 23:30S 00°48' W 048°28'511.1
2018-Apr-09 23:00S 00°43' W 048°25'612.0
2018-Apr-09 22:30S 00°38' W 048°22'612.2
2018-Apr-09 21:59S 00°32' W 048°18'612.2
2018-Apr-09 21:30S 00°28' W 048°15'612.0
2018-Apr-09 21:00S 00°24' W 048°10'612.1
2018-Apr-09 20:30S 00°21' W 048°05'612.6
2018-Apr-09 20:00S 00°18' W 047°59'612.1
2018-Apr-09 19:30S 00°15' W 047°55'612.4
2018-Apr-09 19:00S 00°10' W 047°50'612.4
2018-Apr-09 18:30S 00°06' W 047°46'612.3
2018-Apr-09 18:00S 00°02' W 047°41'612.7
2018-Apr-09 17:30N 00°03' W 047°37'  

Dump ship's entire track history